createdAt,value
2022-08-09T00:00:00.880Z,0.00
2022-08-09T00:00:54.871Z,0.00
2022-08-09T00:01:55.743Z,0.00
2022-08-09T00:02:54.368Z,0.00
2022-08-09T00:04:03.692Z,0.00
2022-08-09T00:05:02.947Z,0.00
2022-08-09T00:06:17.290Z,0.00
2022-08-09T00:06:56.431Z,0.00
2022-08-09T00:07:55.730Z,0.00
2022-08-09T00:08:57.312Z,0.00
2022-08-09T00:09:56.311Z,0.00
2022-08-09T00:10:58.072Z,0.00
2022-08-09T00:12:02.740Z,0.00
2022-08-09T00:12:58.081Z,0.00
2022-08-09T00:13:57.381Z,0.00
2022-08-09T00:14:57.702Z,0.00
2022-08-09T00:16:02.784Z,0.00
2022-08-09T00:16:59.944Z,0.00
2022-08-09T00:18:05.861Z,0.00
2022-08-09T00:18:59.733Z,0.00
2022-08-09T00:19:59.075Z,0.00
2022-08-09T00:20:59.321Z,0.00
2022-08-09T00:21:59.641Z,0.00
2022-08-09T00:23:04.878Z,0.00
2022-08-09T00:24:01.084Z,0.00
2022-08-09T00:25:00.325Z,0.00
2022-08-09T00:26:00.615Z,0.00
2022-08-09T00:27:01.693Z,0.00
2022-08-09T00:28:01.117Z,0.00
2022-08-09T00:29:01.374Z,0.00
2022-08-09T00:30:16.446Z,0.00
2022-08-09T00:31:30.446Z,0.00
2022-08-09T00:32:04.738Z,0.00
2022-08-09T00:33:02.439Z,0.00
2022-08-09T00:34:02.727Z,0.00
2022-08-09T00:35:02.966Z,0.00
2022-08-09T00:36:03.288Z,0.00
2022-08-09T00:37:03.529Z,0.00
2022-08-09T00:38:03.857Z,0.00
2022-08-09T00:39:04.657Z,0.00
2022-08-09T00:40:13.433Z,0.00
2022-08-09T00:41:05.795Z,0.00
2022-08-09T00:44:10.531Z,0.00
2022-08-09T00:44:13.946Z,0.00
2022-08-09T00:44:14.246Z,0.00
2022-08-09T00:45:15.888Z,0.00
2022-08-09T00:46:06.963Z,0.00
2022-08-09T00:47:07.895Z,0.00
2022-08-09T00:48:06.580Z,0.00
2022-08-09T00:49:06.813Z,0.00
2022-08-09T00:50:07.075Z,0.00
2022-08-09T00:51:10.209Z,0.00
2022-08-09T00:52:17.292Z,0.00
2022-08-09T00:53:10.731Z,0.00
2022-08-09T00:54:08.054Z,0.00
2022-08-09T00:55:08.336Z,0.00
2022-08-09T00:56:09.932Z,0.00
2022-08-09T00:57:10.550Z,0.00
2022-08-09T00:58:09.238Z,0.00
2022-08-09T00:59:10.368Z,0.00
2022-08-09T01:00:21.309Z,0.00
2022-08-09T01:01:10.916Z,0.00
2022-08-09T01:02:11.208Z,0.00
2022-08-09T01:03:10.550Z,0.00
2022-08-09T01:04:10.786Z,0.00
2022-08-09T01:05:14.365Z,0.00
2022-08-09T01:06:17.863Z,0.00
2022-08-09T01:07:14.057Z,0.00
2022-08-09T01:08:11.900Z,0.00
2022-08-09T01:09:12.159Z,0.00
2022-08-09T01:10:12.390Z,0.00
2022-08-09T01:11:15.122Z,0.00
2022-08-09T01:12:12.934Z,0.00
2022-08-09T01:13:13.150Z,0.00
2022-08-09T01:14:13.391Z,0.00
2022-08-09T01:15:16.892Z,0.00
2022-08-09T01:16:13.892Z,0.00
2022-08-09T01:17:16.582Z,0.00
2022-08-09T01:18:14.534Z,0.00
2022-08-09T01:19:16.878Z,0.00
2022-08-09T01:20:16.012Z,0.00
2022-08-09T01:21:15.323Z,0.00
2022-08-09T01:22:16.719Z,0.00
2022-08-09T01:24:02.710Z,0.00
2022-08-09T01:24:17.125Z,0.00
2022-08-09T01:25:17.640Z,0.00
2022-08-09T01:26:16.774Z,0.00
2022-08-09T01:27:17.814Z,0.00
2022-08-09T01:28:17.443Z,0.00
2022-08-09T01:29:17.696Z,0.00
2022-08-09T01:30:35.827Z,0.00
2022-08-09T01:32:31.187Z,0.00
2022-08-09T01:32:32.552Z,0.00
2022-08-09T01:33:19.707Z,0.00
2022-08-09T01:34:18.989Z,0.00
2022-08-09T01:35:37.862Z,0.00
2022-08-09T01:36:20.459Z,0.00
2022-08-09T01:37:21.841Z,0.00
2022-08-09T01:38:20.948Z,0.00
2022-08-09T01:39:20.180Z,0.00
2022-08-09T01:40:23.315Z,0.00
2022-08-09T01:41:25.898Z,0.00
2022-08-09T01:42:20.931Z,0.00
2022-08-09T01:43:21.208Z,0.00
2022-08-09T01:44:21.472Z,0.00
2022-08-09T01:45:21.719Z,0.00
2022-08-09T01:46:24.699Z,0.00
2022-08-09T01:47:22.202Z,0.00
2022-08-09T01:48:24.115Z,0.00
2022-08-09T01:49:24.121Z,0.00
2022-08-09T01:50:28.981Z,0.00
2022-08-09T01:51:25.993Z,0.00
2022-08-09T01:52:23.593Z,0.00
2022-08-09T01:53:23.897Z,0.00
2022-08-09T01:54:25.094Z,0.00
2022-08-09T01:55:24.324Z,0.00
2022-08-09T01:56:24.566Z,0.00
2022-08-09T01:57:24.846Z,0.00
2022-08-09T01:58:25.095Z,0.00
2022-08-09T01:59:25.346Z,0.00
2022-08-09T02:00:35.799Z,0.00
2022-08-09T02:01:58.548Z,0.00
2022-08-09T02:02:30.954Z,0.00
2022-08-09T02:03:26.438Z,0.00
2022-08-09T02:04:26.691Z,0.00
2022-08-09T02:05:38.195Z,0.00
2022-08-09T02:06:28.166Z,0.00
2022-08-09T02:08:39.248Z,0.00
2022-08-09T02:08:40.978Z,0.00
2022-08-09T02:09:42.185Z,0.00
2022-08-09T02:10:30.130Z,0.00
2022-08-09T02:11:40.282Z,0.00
2022-08-09T02:12:32.420Z,0.00
2022-08-09T02:13:37.609Z,0.00
2022-08-09T02:14:30.320Z,0.00
2022-08-09T02:15:49.627Z,0.00
2022-08-09T02:16:35.269Z,0.00
2022-08-09T02:18:00.511Z,0.00
2022-08-09T02:18:31.384Z,0.00
2022-08-09T02:19:38.542Z,0.00
2022-08-09T02:20:32.843Z,0.00
2022-08-09T02:21:31.277Z,0.00
2022-08-09T02:22:35.972Z,0.00
2022-08-09T02:23:39.789Z,0.00
2022-08-09T02:24:33.055Z,0.00
2022-08-09T02:25:32.375Z,0.00
2022-08-09T02:26:33.614Z,0.00
2022-08-09T02:27:57.367Z,0.00
2022-08-09T02:28:34.148Z,0.00
2022-08-09T02:29:33.436Z,0.00
2022-08-09T02:30:34.091Z,0.00
2022-08-09T02:31:34.181Z,0.00
2022-08-09T02:32:34.303Z,0.00
2022-08-09T02:33:37.898Z,0.00
2022-08-09T02:34:40.572Z,0.00
2022-08-09T02:36:02.118Z,0.00
2022-08-09T02:36:36.278Z,0.00
2022-08-09T02:37:36.774Z,0.00
2022-08-09T02:38:35.896Z,0.00
2022-08-09T02:39:42.465Z,0.00
2022-08-09T02:40:37.379Z,0.00
2022-08-09T02:41:36.609Z,0.00
2022-08-09T02:42:36.890Z,0.00
2022-08-09T02:43:42.384Z,0.00
2022-08-09T02:44:38.368Z,0.00
2022-08-09T02:45:37.662Z,0.00
2022-08-09T02:46:37.921Z,0.00
2022-08-09T02:47:57.526Z,0.00
2022-08-09T02:48:39.510Z,0.00
2022-08-09T02:49:41.415Z,0.00
2022-08-09T02:50:39.080Z,0.00
2022-08-09T02:51:40.461Z,0.00
2022-08-09T02:52:39.543Z,0.00
2022-08-09T02:53:39.784Z,0.00
2022-08-09T02:54:53.918Z,0.00
2022-08-09T02:55:53.633Z,0.00
2022-08-09T02:56:41.543Z,0.00
2022-08-09T02:58:00.719Z,0.00
2022-08-09T02:58:42.087Z,0.00
2022-08-09T03:00:21.624Z,0.00
2022-08-09T03:00:54.904Z,0.00
2022-08-09T03:02:05.951Z,0.00
2022-08-09T03:02:58.422Z,0.00
2022-08-09T03:04:17.192Z,0.00
2022-08-09T03:04:43.638Z,0.00
2022-08-09T03:05:42.918Z,0.00
2022-08-09T03:06:44.268Z,0.00
2022-08-09T03:07:43.498Z,0.00
2022-08-09T03:08:44.729Z,0.00
2022-08-09T03:09:54.164Z,0.00
2022-08-09T03:10:45.325Z,0.00
2022-08-09T03:12:05.642Z,0.00
2022-08-09T03:12:49.308Z,0.00
2022-08-09T03:14:01.455Z,0.00
2022-08-09T03:14:46.360Z,0.00
2022-08-09T03:16:06.514Z,0.00
2022-08-09T03:16:48.259Z,0.00
2022-08-09T03:17:46.212Z,0.00
2022-08-09T03:18:47.442Z,0.00
2022-08-09T03:19:57.933Z,0.00
2022-08-09T03:20:47.942Z,0.00
2022-08-09T03:21:50.777Z,0.00
2022-08-09T03:22:56.875Z,0.00
2022-08-09T03:24:03.835Z,0.00
2022-08-09T03:24:52.706Z,0.00
2022-08-09T03:26:03.200Z,0.00
2022-08-09T03:26:49.464Z,0.00
2022-08-09T03:27:48.723Z,0.00
2022-08-09T03:28:48.956Z,0.00
2022-08-09T03:29:57.671Z,0.00
2022-08-09T03:30:50.466Z,0.00
2022-08-09T03:31:59.669Z,0.00
2022-08-09T03:32:50.935Z,0.00
2022-08-09T03:33:53.936Z,0.00
2022-08-09T03:34:54.173Z,0.00
2022-08-09T03:36:13.415Z,0.00
2022-08-09T03:36:58.267Z,0.00
2022-08-09T03:37:55.857Z,0.00
2022-08-09T03:38:52.551Z,0.00
2022-08-09T03:39:56.522Z,0.00
2022-08-09T03:40:52.199Z,0.00
2022-08-09T03:41:52.442Z,0.00
2022-08-09T03:42:53.660Z,0.00
2022-08-09T03:44:07.823Z,0.00
2022-08-09T03:44:54.150Z,0.00
2022-08-09T03:46:13.654Z,0.00
2022-08-09T03:46:54.662Z,0.00
2022-08-09T03:47:53.961Z,0.00
2022-08-09T03:48:54.194Z,0.00
2022-08-09T03:49:58.770Z,0.00
2022-08-09T03:50:54.713Z,0.00
2022-08-09T03:51:57.432Z,0.00
2022-08-09T03:52:55.314Z,0.00
2022-08-09T03:53:55.645Z,0.00
2022-08-09T03:54:56.704Z,0.00
2022-08-09T03:55:56.194Z,0.00
2022-08-09T03:56:57.805Z,0.00
2022-08-09T03:58:06.487Z,0.00
2022-08-09T03:58:57.898Z,0.00
2022-08-09T04:00:00.496Z,0.00
2022-08-09T04:00:57.549Z,8.00
2022-08-09T04:01:59.327Z,8.00
2022-08-09T04:02:58.027Z,8.00
2022-08-09T04:04:01.483Z,8.00
2022-08-09T04:05:00.544Z,8.00
2022-08-09T04:05:58.878Z,8.00
2022-08-09T04:06:59.119Z,8.00
2022-08-09T04:07:59.373Z,8.00
2022-08-09T04:08:59.620Z,4.00
2022-08-09T04:09:59.881Z,4.00
2022-08-09T04:11:01.780Z,4.00
2022-08-09T04:12:00.410Z,4.00
2022-08-09T04:13:02.689Z,4.00
2022-08-09T04:14:53.592Z,4.00
2022-08-09T04:15:11.718Z,4.00
2022-08-09T04:16:19.390Z,4.00
2022-08-09T04:17:02.782Z,4.00
2022-08-09T04:18:02.033Z,0.00
2022-08-09T04:19:02.282Z,0.00
2022-08-09T04:20:03.485Z,4.00
2022-08-09T04:21:02.824Z,4.00
2022-08-09T04:22:03.105Z,4.00
2022-08-09T04:23:03.345Z,4.00
2022-08-09T04:24:04.574Z,4.00
2022-08-09T04:25:03.845Z,4.00
2022-08-09T04:26:04.125Z,4.00
2022-08-09T04:27:04.385Z,4.00
2022-08-09T04:28:04.626Z,4.00
2022-08-09T04:29:10.897Z,4.00
2022-08-09T04:30:06.126Z,8.00
2022-08-09T04:31:05.801Z,8.00
2022-08-09T04:32:05.702Z,8.00
2022-08-09T04:33:05.929Z,16.00
2022-08-09T04:34:06.247Z,4.00
2022-08-09T04:35:08.564Z,4.00
2022-08-09T04:36:06.850Z,4.00
2022-08-09T04:37:07.179Z,8.00
2022-08-09T04:38:07.469Z,8.00
2022-08-09T04:39:07.791Z,8.00
2022-08-09T04:40:08.031Z,8.00
2022-08-09T04:41:11.811Z,8.00
2022-08-09T04:42:09.330Z,8.00
2022-08-09T04:43:08.871Z,4.00
2022-08-09T04:44:11.083Z,8.00
2022-08-09T04:45:09.522Z,8.00
2022-08-09T04:46:09.754Z,8.00
2022-08-09T04:47:10.982Z,8.00
2022-08-09T04:48:10.456Z,8.00
2022-08-09T04:49:10.523Z,8.00
2022-08-09T04:50:10.793Z,8.00
2022-08-09T04:51:11.073Z,12.00
2022-08-09T04:52:11.365Z,12.00
2022-08-09T04:53:13.488Z,8.00
2022-08-09T04:54:11.875Z,8.00
2022-08-09T04:55:13.219Z,8.00
2022-08-09T04:56:12.475Z,8.00
2022-08-09T04:57:13.705Z,12.00
2022-08-09T04:58:13.015Z,12.00
2022-08-09T04:59:15.650Z,12.00
2022-08-09T05:00:13.616Z,8.00
2022-08-09T05:01:16.004Z,12.00
2022-08-09T05:02:14.216Z,12.00
2022-08-09T05:03:39.875Z,12.00
2022-08-09T05:04:15.734Z,12.00
2022-08-09T05:05:15.036Z,12.00
2022-08-09T05:06:25.759Z,16.00
2022-08-09T05:08:31.481Z,16.00
2022-08-09T05:09:42.056Z,16.00
2022-08-09T05:10:32.941Z,12.00
2022-08-09T05:11:36.069Z,16.00
2022-08-09T05:12:33.243Z,16.00
2022-08-09T05:13:33.801Z,16.00
2022-08-09T05:14:33.111Z,20.00
2022-08-09T05:15:39.183Z,16.00
2022-08-09T05:16:58.085Z,20.00
2022-08-09T05:18:39.103Z,24.00
2022-08-09T05:18:39.320Z,20.00
2022-08-09T05:19:45.935Z,24.00
2022-08-09T05:20:35.774Z,24.00
2022-08-09T05:21:46.783Z,24.00
2022-08-09T05:23:54.815Z,28.00
2022-08-09T05:23:58.546Z,28.00
2022-08-09T05:24:36.825Z,36.00
2022-08-09T05:25:36.135Z,40.00
2022-08-09T05:26:46.088Z,52.00
2022-08-09T05:27:38.956Z,60.00
2022-08-09T05:28:37.967Z,64.00
2022-08-09T05:29:37.277Z,68.00
2022-08-09T05:30:37.535Z,72.00
2022-08-09T05:31:46.554Z,72.00
2022-08-09T05:32:39.087Z,76.00
2022-08-09T05:33:42.455Z,80.00
2022-08-09T05:34:38.686Z,84.00
2022-08-09T05:35:46.924Z,92.00
2022-08-09T05:36:40.208Z,92.00
2022-08-09T05:37:46.467Z,96.00
2022-08-09T05:38:40.729Z,92.00
2022-08-09T05:39:43.524Z,96.00
2022-08-09T05:40:40.240Z,100.00
2022-08-09T05:41:40.498Z,104.00
2022-08-09T05:42:40.751Z,108.00
2022-08-09T05:43:45.267Z,104.00
2022-08-09T05:44:42.341Z,108.00
2022-08-09T05:45:43.610Z,108.00
2022-08-09T05:46:42.982Z,116.00
2022-08-09T05:47:51.780Z,116.00
2022-08-09T05:48:43.473Z,116.00
2022-08-09T05:50:30.835Z,120.00
2022-08-09T05:50:51.291Z,120.00
2022-08-09T05:51:46.478Z,120.00
2022-08-09T05:52:43.645Z,124.00
2022-08-09T05:53:57.019Z,124.00
2022-08-09T05:54:45.204Z,128.00
2022-08-09T05:55:44.534Z,132.00
2022-08-09T05:56:54.723Z,132.00
2022-08-09T05:57:55.120Z,132.00
2022-08-09T05:58:46.346Z,136.00
2022-08-09T05:59:45.686Z,136.00
2022-08-09T06:00:45.957Z,140.00
2022-08-09T06:01:46.174Z,140.00
2022-08-09T06:02:46.975Z,140.00
2022-08-09T06:03:58.026Z,144.00
2022-08-09T06:04:47.957Z,148.00
2022-08-09T06:05:54.834Z,148.00
2022-08-09T06:06:49.836Z,148.00
2022-08-09T06:07:49.668Z,152.00
2022-08-09T06:08:52.709Z,152.00
2022-08-09T06:10:01.471Z,152.00
2022-08-09T06:10:49.742Z,152.00
2022-08-09T06:11:57.635Z,156.00
2022-08-09T06:12:50.554Z,156.00
2022-08-09T06:13:50.340Z,156.00
2022-08-09T06:14:49.661Z,160.00
2022-08-09T06:15:51.294Z,160.00
2022-08-09T06:16:52.456Z,160.00
2022-08-09T06:17:50.473Z,164.00
2022-08-09T06:18:58.294Z,164.00
2022-08-09T06:19:51.051Z,168.00
2022-08-09T06:20:54.542Z,168.00
2022-08-09T06:21:58.610Z,168.00
2022-08-09T06:22:52.835Z,168.00
2022-08-09T06:23:55.093Z,172.00
2022-08-09T06:24:52.435Z,168.00
2022-08-09T06:25:55.275Z,168.00
2022-08-09T06:26:52.976Z,168.00
2022-08-09T06:27:53.247Z,168.00
2022-08-09T06:29:00.087Z,168.00
2022-08-09T06:30:04.353Z,168.00
2022-08-09T06:30:55.036Z,168.00
2022-08-09T06:32:08.848Z,172.00
2022-08-09T06:33:13.275Z,172.00
2022-08-09T06:33:55.816Z,172.00
2022-08-09T06:34:55.109Z,172.00
2022-08-09T06:35:57.005Z,172.00
2022-08-09T06:36:59.300Z,172.00
2022-08-09T06:38:05.811Z,168.00
2022-08-09T06:38:57.230Z,164.00
2022-08-09T06:40:00.186Z,160.00
2022-08-09T06:40:57.819Z,156.00
2022-08-09T06:42:08.118Z,152.00
2022-08-09T06:42:58.409Z,152.00
2022-08-09T06:43:57.712Z,152.00
2022-08-09T06:44:57.982Z,156.00
2022-08-09T06:46:07.443Z,156.00
2022-08-09T06:46:59.503Z,152.00
2022-08-09T06:48:01.469Z,160.00
2022-08-09T06:49:00.340Z,160.00
2022-08-09T06:50:13.611Z,160.00
2022-08-09T06:51:00.635Z,168.00
2022-08-09T06:51:59.882Z,172.00
2022-08-09T06:53:00.153Z,176.00
2022-08-09T06:54:00.883Z,176.00
2022-08-09T06:55:00.744Z,180.00
2022-08-09T06:56:01.975Z,180.00
2022-08-09T06:57:01.302Z,180.00
2022-08-09T06:58:04.357Z,184.00
2022-08-09T07:00:51.875Z,184.00
2022-08-09T07:00:54.464Z,184.00
2022-08-09T07:01:03.356Z,184.00
2022-08-09T07:02:04.566Z,188.00
2022-08-09T07:03:06.155Z,188.00
2022-08-09T07:04:04.026Z,188.00
2022-08-09T07:05:03.481Z,188.00
2022-08-09T07:06:05.366Z,192.00
2022-08-09T07:07:04.752Z,192.00
2022-08-09T07:08:04.249Z,192.00
2022-08-09T07:09:04.519Z,196.00
2022-08-09T07:10:13.130Z,196.00
2022-08-09T07:11:06.515Z,196.00
2022-08-09T07:12:05.369Z,196.00
2022-08-09T07:13:27.476Z,200.00
2022-08-09T07:14:06.901Z,200.00
2022-08-09T07:16:34.939Z,200.00
2022-08-09T07:16:42.521Z,204.00
2022-08-09T07:17:08.264Z,204.00
2022-08-09T07:18:06.914Z,208.00
2022-08-09T07:19:08.931Z,208.00
2022-08-09T07:20:08.072Z,212.00
2022-08-09T07:21:08.261Z,216.00
2022-08-09T07:22:08.013Z,216.00
2022-08-09T07:23:19.206Z,220.00
2022-08-09T07:24:09.484Z,220.00
2022-08-09T07:25:09.838Z,220.00
2022-08-09T07:26:09.064Z,224.00
2022-08-09T07:27:10.902Z,224.00
2022-08-09T07:28:10.584Z,224.00
2022-08-09T07:29:13.216Z,224.00
2022-08-09T07:30:10.168Z,224.00
2022-08-09T07:31:10.436Z,228.00
2022-08-09T07:32:10.714Z,228.00
2022-08-09T07:33:12.423Z,232.00
2022-08-09T07:34:20.232Z,228.00
2022-08-09T07:35:12.518Z,228.00
2022-08-09T07:36:11.838Z,228.00
2022-08-09T07:37:16.019Z,228.00
2022-08-09T07:38:12.370Z,232.00
2022-08-09T07:39:12.757Z,232.00
2022-08-09T07:40:14.011Z,236.00
2022-08-09T07:41:13.390Z,240.00
2022-08-09T07:42:13.509Z,236.00
2022-08-09T07:43:14.812Z,236.00
2022-08-09T07:44:14.082Z,244.00
2022-08-09T07:45:23.019Z,244.00
2022-08-09T07:46:19.053Z,240.00
2022-08-09T07:47:15.684Z,244.00
2022-08-09T07:48:22.542Z,248.00
2022-08-09T07:49:16.478Z,248.00
2022-08-09T07:50:15.672Z,248.00
2022-08-09T07:52:03.529Z,252.00
2022-08-09T07:52:18.050Z,252.00
2022-08-09T07:53:16.792Z,256.00
2022-08-09T07:54:19.161Z,252.00
2022-08-09T07:55:18.092Z,248.00
2022-08-09T07:56:27.200Z,252.00
2022-08-09T07:57:18.657Z,256.00
2022-08-09T07:58:17.874Z,256.00
2022-08-09T07:59:33.613Z,256.00
2022-08-09T08:00:20.691Z,256.00
2022-08-09T08:01:21.627Z,260.00
2022-08-09T08:02:20.282Z,264.00
2022-08-09T08:03:19.317Z,264.00
2022-08-09T08:04:20.577Z,264.00
2022-08-09T08:05:20.858Z,272.00
2022-08-09T08:06:21.180Z,272.00
2022-08-09T08:08:06.577Z,264.00
2022-08-09T08:09:02.747Z,248.00
2022-08-09T08:09:41.137Z,240.00
2022-08-09T08:10:22.298Z,236.00
2022-08-09T08:12:11.321Z,228.00
2022-08-09T08:12:27.485Z,228.00
2022-08-09T08:13:23.161Z,228.00
2022-08-09T08:14:24.150Z,228.00
2022-08-09T08:15:24.373Z,228.00
2022-08-09T08:16:29.852Z,228.00
2022-08-09T08:17:35.236Z,228.00
2022-08-09T08:18:24.518Z,228.00
2022-08-09T08:19:31.558Z,224.00
2022-08-09T08:20:28.636Z,228.00
2022-08-09T08:21:25.403Z,228.00
2022-08-09T08:22:25.802Z,224.00
2022-08-09T08:23:27.286Z,224.00
2022-08-09T08:24:25.200Z,224.00
2022-08-09T08:25:44.629Z,224.00
2022-08-09T08:26:47.410Z,224.00
2022-08-09T08:27:27.018Z,224.00
2022-08-09T08:28:32.943Z,220.00
2022-08-09T08:29:28.570Z,220.00
2022-08-09T08:30:27.911Z,224.00
2022-08-09T08:31:56.451Z,220.00
2022-08-09T08:32:29.359Z,216.00
2022-08-09T08:33:27.721Z,220.00
2022-08-09T08:34:28.962Z,220.00
2022-08-09T08:35:37.180Z,216.00
2022-08-09T08:36:30.767Z,216.00
2022-08-09T08:37:41.931Z,216.00
2022-08-09T08:38:30.082Z,220.00
2022-08-09T08:39:29.376Z,216.00
2022-08-09T08:40:30.555Z,212.00
2022-08-09T08:41:50.415Z,216.00
2022-08-09T08:42:32.069Z,216.00
2022-08-09T08:43:30.407Z,212.00
2022-08-09T08:44:30.716Z,216.00
2022-08-09T08:45:36.697Z,212.00
2022-08-09T08:46:41.292Z,216.00
2022-08-09T08:47:32.547Z,212.00
2022-08-09T08:48:32.846Z,212.00
2022-08-09T08:49:38.669Z,212.00
2022-08-09T08:50:33.408Z,208.00
2022-08-09T08:51:38.848Z,212.00
2022-08-09T08:52:58.202Z,212.00
2022-08-09T08:53:36.908Z,208.00
2022-08-09T08:54:33.570Z,208.00
2022-08-09T08:55:33.849Z,208.00
2022-08-09T08:56:34.120Z,208.00
2022-08-09T08:57:34.652Z,208.00
2022-08-09T08:58:35.924Z,204.00
2022-08-09T08:59:44.525Z,204.00
2022-08-09T09:00:36.225Z,204.00
2022-08-09T09:01:35.732Z,204.00
2022-08-09T09:02:37.084Z,204.00
2022-08-09T09:03:37.588Z,200.00
2022-08-09T09:04:47.308Z,200.00
2022-08-09T09:05:59.695Z,200.00
2022-08-09T09:06:37.924Z,200.00
2022-08-09T09:07:37.133Z,200.00
2022-08-09T09:08:40.788Z,200.00
2022-08-09T09:09:58.555Z,196.00
2022-08-09T09:10:38.896Z,196.00
2022-08-09T09:11:38.663Z,196.00
2022-08-09T09:12:38.390Z,200.00
2022-08-09T09:13:55.586Z,196.00
2022-08-09T09:14:39.906Z,192.00
2022-08-09T09:15:39.166Z,192.00
2022-08-09T09:16:39.397Z,192.00
2022-08-09T09:17:49.073Z,192.00
2022-08-09T09:18:43.369Z,188.00
2022-08-09T09:19:42.001Z,192.00
2022-08-09T09:20:40.451Z,188.00
2022-08-09T09:21:43.376Z,188.00
2022-08-09T09:22:42.032Z,184.00
2022-08-09T09:23:41.358Z,188.00
2022-08-09T09:24:43.585Z,188.00
2022-08-09T09:26:01.412Z,184.00
2022-08-09T09:26:44.816Z,184.00
2022-08-09T09:28:06.625Z,188.00
2022-08-09T09:29:03.353Z,184.00
2022-08-09T09:30:11.991Z,180.00
2022-08-09T09:30:44.282Z,184.00
2022-08-09T09:32:06.561Z,184.00
2022-08-09T09:32:44.791Z,184.00
2022-08-09T09:33:44.601Z,184.00
2022-08-09T09:34:44.599Z,180.00
2022-08-09T09:35:47.979Z,180.00
2022-08-09T09:36:51.191Z,176.00
2022-08-09T09:37:46.231Z,176.00
2022-08-09T09:38:45.607Z,176.00
2022-08-09T09:39:55.475Z,176.00
2022-08-09T09:40:47.115Z,172.00
2022-08-09T09:41:49.626Z,172.00
2022-08-09T09:42:46.697Z,172.00
2022-08-09T09:44:10.939Z,172.00
2022-08-09T09:44:48.206Z,168.00
2022-08-09T09:46:51.743Z,172.00
2022-08-09T09:47:56.704Z,172.00
2022-08-09T09:48:50.262Z,36.00
2022-08-09T09:49:56.548Z,40.00
2022-08-09T09:50:49.935Z,100.00
2022-08-09T09:51:51.349Z,40.00
2022-08-09T09:52:53.862Z,84.00
2022-08-09T09:54:00.897Z,148.00
2022-08-09T09:54:55.144Z,148.00
2022-08-09T09:56:03.936Z,144.00
2022-08-09T09:58:01.261Z,140.00
2022-08-09T09:58:03.710Z,140.00
2022-08-09T09:58:53.402Z,136.00
2022-08-09T09:59:52.026Z,136.00
2022-08-09T10:00:55.002Z,140.00
2022-08-09T10:01:52.852Z,136.00
2022-08-09T10:02:52.191Z,136.00
2022-08-09T10:03:57.505Z,136.00
2022-08-09T10:04:53.682Z,132.00
2022-08-09T10:06:03.553Z,136.00
2022-08-09T10:06:54.278Z,132.00
2022-08-09T10:08:10.723Z,132.00
2022-08-09T10:08:57.570Z,132.00
2022-08-09T10:09:54.728Z,128.00
2022-08-09T10:10:54.407Z,132.00
2022-08-09T10:12:07.595Z,128.00
2022-08-09T10:12:56.170Z,124.00
2022-08-09T10:13:55.176Z,128.00
2022-08-09T10:14:55.477Z,128.00
2022-08-09T10:16:55.074Z,124.00
2022-08-09T10:17:05.366Z,124.00
2022-08-09T10:17:57.265Z,124.00
2022-08-09T10:18:56.637Z,124.00
2022-08-09T10:19:57.158Z,120.00
2022-08-09T10:20:57.106Z,120.00
2022-08-09T10:21:57.369Z,116.00
2022-08-09T10:23:00.679Z,116.00
2022-08-09T10:23:57.979Z,116.00
2022-08-09T10:24:58.321Z,116.00
2022-08-09T10:26:07.714Z,116.00
2022-08-09T10:26:59.852Z,112.00
2022-08-09T10:27:59.241Z,116.00
2022-08-09T10:29:37.190Z,112.00
2022-08-09T10:30:26.431Z,108.00
2022-08-09T10:33:01.583Z,108.00
2022-08-09T10:34:33.103Z,104.00
2022-08-09T10:35:02.076Z,104.00
2022-08-09T10:36:02.228Z,104.00
2022-08-09T10:37:01.682Z,100.00
2022-08-09T10:38:01.942Z,100.00
2022-08-09T10:39:02.186Z,100.00
2022-08-09T10:40:02.527Z,96.00
2022-08-09T10:41:02.743Z,100.00
2022-08-09T10:42:03.730Z,96.00
2022-08-09T10:43:03.231Z,100.00
2022-08-09T10:44:03.488Z,96.00
2022-08-09T10:45:04.227Z,92.00
2022-08-09T10:46:04.015Z,92.00
2022-08-09T10:48:12.475Z,88.00
2022-08-09T10:48:19.496Z,92.00
2022-08-09T10:49:05.827Z,88.00
2022-08-09T10:50:05.064Z,88.00
2022-08-09T10:51:05.317Z,92.00
2022-08-09T10:52:05.557Z,88.00
2022-08-09T10:53:10.533Z,84.00
2022-08-09T10:54:10.023Z,84.00
2022-08-09T10:55:07.397Z,80.00
2022-08-09T10:56:06.637Z,80.00
2022-08-09T10:57:06.920Z,80.00
2022-08-09T10:58:07.239Z,80.00
2022-08-09T10:59:07.500Z,76.00
2022-08-09T11:00:07.880Z,76.00
2022-08-09T11:03:02.233Z,72.00
2022-08-09T11:03:11.918Z,72.00
2022-08-09T11:03:27.333Z,68.00
2022-08-09T11:04:20.004Z,68.00
2022-08-09T11:05:10.281Z,68.00
2022-08-09T11:06:10.533Z,68.00
2022-08-09T11:07:09.842Z,68.00
2022-08-09T11:08:10.160Z,60.00
2022-08-09T11:09:16.233Z,60.00
2022-08-09T11:10:11.672Z,60.00
2022-08-09T11:11:10.912Z,60.00
2022-08-09T11:12:11.186Z,56.00
2022-08-09T11:13:11.444Z,56.00
2022-08-09T11:14:12.684Z,56.00
2022-08-09T11:15:16.712Z,52.00
2022-08-09T11:16:13.145Z,52.00
2022-08-09T11:17:13.425Z,52.00
2022-08-09T11:18:12.662Z,48.00
2022-08-09T11:19:12.987Z,52.00
2022-08-09T11:20:22.356Z,48.00
2022-08-09T11:21:14.537Z,48.00
2022-08-09T11:22:24.230Z,48.00
2022-08-09T11:23:15.096Z,48.00
2022-08-09T11:24:14.338Z,44.00
2022-08-09T11:25:14.856Z,44.00
2022-08-09T11:26:14.919Z,44.00
2022-08-09T11:27:16.149Z,44.00
2022-08-09T11:28:30.807Z,44.00
2022-08-09T11:29:16.708Z,44.00
2022-08-09T11:30:33.809Z,44.00
2022-08-09T11:31:17.273Z,40.00
2022-08-09T11:32:17.550Z,44.00
2022-08-09T11:33:16.814Z,44.00
2022-08-09T11:34:17.129Z,40.00
2022-08-09T11:35:17.361Z,40.00
2022-08-09T11:36:30.314Z,40.00
2022-08-09T11:37:18.853Z,44.00
2022-08-09T11:38:18.122Z,40.00
2022-08-09T11:39:18.530Z,40.00
2022-08-09T11:40:18.683Z,40.00
2022-08-09T11:41:18.933Z,36.00
2022-08-09T11:42:19.304Z,36.00
2022-08-09T11:43:19.522Z,40.00
2022-08-09T11:44:19.859Z,40.00
2022-08-09T11:45:20.094Z,40.00
2022-08-09T11:46:33.125Z,40.00
2022-08-09T11:47:21.585Z,40.00
2022-08-09T11:48:25.953Z,36.00
2022-08-09T11:49:28.181Z,36.00
2022-08-09T11:50:54.083Z,40.00
2022-08-09T11:52:57.122Z,40.00
2022-08-09T11:53:04.450Z,40.00
2022-08-09T11:54:00.955Z,40.00
2022-08-09T11:54:30.116Z,40.00
2022-08-09T11:55:35.011Z,36.00
2022-08-09T11:56:47.539Z,36.00
2022-08-09T11:57:28.446Z,36.00
2022-08-09T11:58:32.322Z,36.00
2022-08-09T11:59:30.170Z,36.00
2022-08-09T12:00:27.837Z,36.00
2022-08-09T12:01:37.672Z,36.00
2022-08-09T12:02:39.569Z,40.00
2022-08-09T12:03:55.679Z,40.00
2022-08-09T12:04:32.444Z,40.00
2022-08-09T12:05:26.632Z,40.00
2022-08-09T12:06:32.179Z,40.00
2022-08-09T12:07:27.101Z,40.00
2022-08-09T12:08:26.408Z,36.00
2022-08-09T12:09:26.744Z,36.00
2022-08-09T12:10:39.789Z,36.00
2022-08-09T12:11:28.253Z,36.00
2022-08-09T12:12:29.144Z,36.00
2022-08-09T12:14:08.060Z,36.00
2022-08-09T12:14:40.474Z,36.00
2022-08-09T12:15:50.443Z,36.00
2022-08-09T12:16:37.128Z,36.00
2022-08-09T12:17:42.160Z,36.00
2022-08-09T12:18:31.198Z,36.00
2022-08-09T12:19:29.429Z,36.00
2022-08-09T12:20:29.707Z,32.00
2022-08-09T12:21:38.334Z,32.00
2022-08-09T12:22:31.484Z,32.00
2022-08-09T12:23:56.394Z,32.00
2022-08-09T12:24:31.777Z,32.00
2022-08-09T12:25:36.017Z,32.00
2022-08-09T12:26:32.357Z,32.00
2022-08-09T12:29:11.582Z,36.00
2022-08-09T12:29:15.118Z,32.00
2022-08-09T12:29:52.573Z,36.00
2022-08-09T12:30:36.561Z,32.00
2022-08-09T12:32:02.653Z,36.00
2022-08-09T12:32:34.257Z,36.00
2022-08-09T12:33:51.487Z,36.00
2022-08-09T12:34:34.531Z,36.00
2022-08-09T12:35:40.269Z,36.00
2022-08-09T12:36:36.109Z,36.00
2022-08-09T12:37:49.844Z,40.00
2022-08-09T12:38:38.269Z,40.00
2022-08-09T12:39:37.671Z,44.00
2022-08-09T12:40:35.182Z,48.00
2022-08-09T12:41:40.064Z,48.00
2022-08-09T12:42:35.895Z,52.00
2022-08-09T12:44:06.149Z,56.00
2022-08-09T12:44:37.618Z,56.00
2022-08-09T12:45:38.368Z,60.00
2022-08-09T12:46:36.788Z,64.00
2022-08-09T12:47:43.603Z,64.00
2022-08-09T12:48:38.494Z,72.00
2022-08-09T12:49:37.615Z,84.00
2022-08-09T12:50:37.856Z,88.00
2022-08-09T12:52:00.168Z,96.00
2022-08-09T12:52:44.286Z,92.00
2022-08-09T12:53:41.266Z,88.00
2022-08-09T12:54:39.928Z,84.00
2022-08-09T12:56:14.665Z,80.00
2022-08-09T12:56:48.545Z,72.00
2022-08-09T12:57:40.709Z,68.00
2022-08-09T12:58:42.900Z,64.00
2022-08-09T12:59:57.578Z,64.00